Kezdőlap
METAR-TAF:

METAR-TAF

Repülőterek :

South St. Paul Municipal Airport (Richard E. Fleming Field)

South St. Paul, Minnesota, Amerikai Egyesült Államok

földrajzi szélesség: 44-51-26N, földrajzi hosszúság: 093-01-58W, magasság: 250 m

Jelenlegi meteorológiai megfigyelések

A jelentés 16 perccel ezelõtt készült, 17:35 UTC
Déli szél 9 kt
Hőmérséklet 29°C
Páratartalom 66%
Légköri nyomás 1016 hPa
Látótávolság: 11.3 km
Szórványos felhőzet 2300 lábon
Szórványos felhőzet 2900 lábon
Szórványos felhőzet 3700 lábon

METAR: KSGS 131735Z AUTO 18009KT 7SM SCT023 SCT029 SCT037 29/22 A3000 RMK AO2 T02870222 PWINO

Idő: 12:51 (17:51 UTC)


TAF: hiányzik

Meteorológiai megfigyelések és előrejelzések több, mint 4000 repülőtéren (METAR és TAF jelentéseket).

A térképen piros és sárga pontok jelzik az elérhető meteorológiai állomásokat.

Mozgassa az egeret a pont fölött, hogy megjelenjen az állomás neve.

Azután kattintson az időjárási megfigyelések és előrejelzések megtekintéséhez.

A térkép megváltoztatása: kattintson a fekete keresztel jelölt zöld gombra ráközelítéshez, a vonallal jelölt zöld gombra távolításhoz, vagy a zöld nyilakra a szomszédos térképek eléréséhez.


METAR-TAF: